»·PEaware :: HALO486 KVBG-KNUC

HALO486 :: KVBG-KNUC

FLIGHT INFORMATION

Flight Status: Arrived
Operator: Unknown
More flights by this operator :: More flights under this callsign
Pilot: Matthew W. (35059)
Aircraft: Cessna 700 Citation Longitude
(C700)
More flights by this aircraft type
Origin: KVBG Vandenberg AFB
United States
Destination: KNUC San Clemente I NALF
United States
More flights between these airports :: More routes between these airports
Route: GVO3 GVO V27 SXC
File this flight plan on PilotEdge
Remarks:
Altitude:
(Current/Filed)
17,000ft
Speed:
(Current/Filed)
300kts
Departed: 20-Jun-21 03:29 PM
Arrived: 20-Jun-21 04:05 PM
Distance/Time
Traveled:
143nm/0:36
Distance/Time
To Go:
Arrived

Flight Plot

Page will automatically refresh every two minutes.

Flight plan parsing failed; only flown route is shown


Map Options




Map Legend


Flown Route
Filed Route
Departure Airport
Arrival Airport
Navaid (VOR, NDB)
Fix

Horizontal Profiles

Position Reports

Time Latitude Longitude Heading Altitude Ground
Speed
20-Jun-21 15:15 34.732127 -120.570074 49 343ft 0kts
20-Jun-21 15:16 34.732127 -120.570074 49 343ft 0kts
20-Jun-21 15:17 34.732127 -120.570074 49 343ft 0kts
20-Jun-21 15:18 34.732127 -120.570074 49 343ft 0kts
20-Jun-21 15:19 34.732127 -120.570074 49 343ft 0kts
20-Jun-21 15:20 34.732127 -120.570074 49 343ft 0kts
20-Jun-21 15:21 34.732127 -120.570074 49 343ft 0kts
20-Jun-21 15:22 34.732127 -120.570074 49 343ft 0kts
20-Jun-21 15:23 34.731310 -120.571276 315 342ft 17kts
20-Jun-21 15:24 34.734976 -120.575470 315 327ft 18kts
20-Jun-21 15:25 34.738900 -120.579937 318 310ft 23kts
20-Jun-21 15:26 34.739217 -120.584097 229 302ft 0kts
20-Jun-21 15:27 34.739213 -120.584103 229 302ft 1kts
20-Jun-21 15:28 34.725444 -120.571081 135 476ft 195kts
20-Jun-21 15:29 34.677550 -120.511733 134 1941ft 230kts
20-Jun-21 15:30 34.630834 -120.456032 135 3413ft 239kts
20-Jun-21 15:31 34.583175 -120.398940 134 4509ft 253kts
20-Jun-21 15:32 34.532214 -120.336904 134 5808ft 263kts
20-Jun-21 15:33 34.479853 -120.271666 123 7344ft 287kts
20-Jun-21 15:34 34.516691 -120.207021 0 9910ft 297kts
20-Jun-21 15:35 34.583116 -120.155124 83 11107ft 334kts
20-Jun-21 15:36 34.534979 -120.064188 145 12284ft 343kts
20-Jun-21 15:37 34.451890 -120.004495 151 13722ft 350kts
20-Jun-21 15:38 34.366608 -119.947585 149 15095ft 352kts
20-Jun-21 15:39 34.300679 -119.861981 109 16606ft 359kts
20-Jun-21 15:40 34.291231 -119.735988 85 16969ft 390kts
20-Jun-21 15:41 34.302276 -119.605555 84 16964ft 390kts
20-Jun-21 15:42 34.312929 -119.474562 86 16957ft 390kts
20-Jun-21 15:43 34.321691 -119.343667 85 16992ft 392kts
20-Jun-21 15:45 34.318907 -119.214518 116 16920ft 382kts
20-Jun-21 15:46 34.238942 -119.137705 149 16959ft 371kts
20-Jun-21 15:47 34.150366 -119.073702 151 16980ft 370kts
20-Jun-21 15:48 34.062617 -119.009111 146 17038ft 373kts
20-Jun-21 15:49 33.979477 -118.934730 143 17012ft 373kts
20-Jun-21 15:50 33.895624 -118.861614 146 17007ft 372kts
20-Jun-21 15:51 33.811296 -118.791140 146 17009ft 372kts
20-Jun-21 15:52 33.727743 -118.717029 144 16986ft 373kts
20-Jun-21 15:53 33.644820 -118.643013 145 15947ft 370kts
20-Jun-21 15:54 33.562120 -118.570429 145 14918ft 366kts
20-Jun-21 15:55 33.480677 -118.498517 145 13892ft 362kts
20-Jun-21 15:56 33.404497 -118.434806 165 12760ft 290kts
20-Jun-21 15:57 33.327175 -118.412419 168 11798ft 284kts
20-Jun-21 15:58 33.249967 -118.395177 174 10764ft 280kts
20-Jun-21 15:59 33.172537 -118.385011 175 9605ft 277kts
20-Jun-21 16:00 33.102627 -118.379270 200 7854ft 227kts
20-Jun-21 16:01 33.070737 -118.436653 249 5252ft 194kts
20-Jun-21 16:02 33.055287 -118.492620 249 2707ft 164kts
20-Jun-21 16:03 33.041764 -118.534236 249 883ft 137kts
20-Jun-21 16:04 33.027279 -118.575741 245 225ft 119kts
20-Jun-21 16:05 33.021328 -118.592487 249 127ft 28kts
20-Jun-21 16:06 33.019386 -118.593715 67 121ft 21kts
20-Jun-21 16:07 33.021520 -118.587748 67 141ft 22kts
20-Jun-21 16:08 33.020283 -118.584797 150 148ft 8kts
20-Jun-21 16:09 33.019889 -118.584242 126 149ft 0kts
20-Jun-21 16:09 33.019889 -118.584242 126 149ft 0kts

Navigation Log

Ident Type
Flight plan parsing failed, navigation log unavailable